Time;durP1;ratioP1;P1;durP2;ratioP2;P2;SDS_P1;SDS_P2;PMS_P1;PMS_P2;Temp;Humidity;BMP_temperature;BMP_pressure;BME280_temperature;BME280_humidity;BME280_pressure;Samples;Min_cycle;Max_cycle;Signal;HPM_P1;HPM_P2
2021/05/12 00:01:10;;;;;;;;;;;;;;;21.51;30.83;97686.03;5120307;28;1343;-75
2021/05/12 00:03:35;;;;;;;;;;;;;;;21.67;30.60;97682.28;5120384;28;908;-75
2021/05/12 00:06:01;;;;;;;;;;;;;;;21.55;30.65;97677.41;5120102;28;1374;-75
2021/05/12 00:08:26;;;;;;;;;;;;;;;21.65;30.40;97681.13;5120661;28;832;-75
2021/05/12 00:10:52;;;;;;;;;;;;;;;21.51;31.01;97677.53;5120626;28;621;-75
2021/05/12 00:13:17;;;;;;;;;;;;;;;21.41;30.90;97680.69;5120805;28;658;-75
2021/05/12 00:15:43;;;;;;;;;;;;;;;21.43;30.78;97678.19;5121019;28;610;-75
2021/05/12 00:18:13;;;;;;;;;;;;;;;21.44;30.68;97668.44;5120016;28;1393;-76
2021/05/12 00:20:40;;;;;;;;;;;;;;;21.45;30.81;97667.19;5120209;28;893;-75
2021/05/12 00:23:12;;;;;;;;;;;;;;;21.62;30.53;97674.34;5120491;28;856;-75
2021/05/12 00:25:37;;;;;;;;;;;;;;;21.56;30.75;97667.69;5120795;28;733;-76
2021/05/12 00:28:03;;;;;;;;;;;;;;;21.50;30.65;97666.63;5120749;28;1319;-75
2021/05/12 00:30:28;;;;;;;;;;;;;;;21.66;30.24;97660.88;5102791;28;1287;-76
2021/05/12 00:32:54;;;;;;;;;;;;;;;21.63;30.30;97661.00;5120233;28;1053;-75
2021/05/12 00:35:19;;;;;;;;;;;;;;;21.53;30.76;97660.09;5120062;28;912;-75
2021/05/12 00:37:45;;;;;;;;;;;;;;;21.50;30.55;97658.16;5120250;28;1288;-74
2021/05/12 00:40:13;;;;;;;;;;;;;;;21.50;30.51;97652.47;5120136;28;1906;-75
2021/05/12 00:42:38;;;;;;;;;;;;;;;21.61;30.36;97641.63;5103201;28;642;-75
2021/05/12 00:45:04;;;;;;;;;;;;;;;21.42;30.41;97651.13;5120348;28;650;-75
2021/05/12 00:47:30;;;;;;;;;;;;;;;21.53;30.56;97651.59;5120313;28;968;-75
2021/05/12 00:49:56;;;;;;;;;;;;;;;21.50;30.54;97635.50;5119971;28;1418;-75
2021/05/12 00:52:22;;;;;;;;;;;;;;;21.53;30.54;97634.59;5120157;28;887;-76
2021/05/12 00:54:47;;;;;;;;;;;;;;;21.52;30.38;97630.19;5120554;28;698;-75
2021/05/12 00:57:12;;;;;;;;;;;;;;;21.50;30.37;97636.31;5120544;28;749;-75
2021/05/12 00:59:38;;;;;;;;;;;;;;;21.60;29.98;97628.69;5119673;28;1909;-75
2021/05/12 01:02:05;;;;;;;;;;;;;;;21.59;30.14;97627.13;5119956;28;1369;-74
2021/05/12 01:04:31;;;;;;;;;;;;;;;21.53;30.17;97626.91;5086584;28;1297;-75
2021/05/12 01:06:56;;;;;;;;;;;;;;;21.53;30.45;97615.59;5122016;28;861;-75
2021/05/12 01:09:22;;;;;;;;;;;;;;;21.52;30.38;97616.84;5123531;28;1381;-76
2021/05/12 01:11:47;;;;;;;;;;;;;;;21.54;30.28;97616.38;5124030;28;598;-75
2021/05/12 01:14:13;;;;;;;;;;;;;;;21.44;30.30;97614.69;5124166;28;745;-76
2021/05/12 01:16:40;;;;;;;;;;;;;;;21.50;30.38;97598.69;5123357;28;1002;-75
2021/05/12 01:19:06;;;;;;;;;;;;;;;21.44;30.10;97603.34;5123267;28;1980;-75
2021/05/12 01:21:31;;;;;;;;;;;;;;;21.47;30.31;97603.25;5123326;28;1338;-75
2021/05/12 01:23:57;;;;;;;;;;;;;;;21.59;30.02;97596.78;5123294;28;1737;-75
2021/05/12 01:26:23;;;;;;;;;;;;;;;21.50;30.00;97587.38;5123509;28;643;-75
2021/05/12 01:28:49;;;;;;;;;;;;;;;21.45;30.21;97593.59;5123576;28;678;-75
2021/05/12 01:31:21;;;;;;;;;;;;;;;21.49;29.85;97588.63;5123107;28;864;-75
2021/05/12 01:33:48;;;;;;;;;;;;;;;21.49;30.07;97591.47;5122761;28;1358;-76
2021/05/12 01:36:14;;;;;;;;;;;;;;;21.35;30.33;97583.44;5123395;28;1011;-75
2021/05/12 01:38:40;;;;;;;;;;;;;;;21.42;30.12;97578.34;5123331;28;1905;-75
2021/05/12 01:41:05;;;;;;;;;;;;;;;21.47;29.80;97579.81;5123189;28;625;-75
2021/05/12 01:43:31;;;;;;;;;;;;;;;21.61;29.59;97578.56;5122951;28;1355;-75
2021/05/12 01:45:57;;;;;;;;;;;;;;;21.53;29.95;97572.31;5105165;28;1398;-75
2021/05/12 01:48:22;;;;;;;;;;;;;;;21.53;29.68;97567.47;5122984;28;856;-75
2021/05/12 01:50:48;;;;;;;;;;;;;;;21.64;29.87;97572.75;5139079;27;1517;-75
2021/05/12 01:53:14;;;;;;;;;;;;;;;21.51;29.91;97577.66;5105266;28;1339;-75
2021/05/12 01:55:39;;;;;;;;;;;;;;;21.51;30.02;97574.84;5123347;28;623;-75
2021/05/12 01:58:05;;;;;;;;;;;;;;;21.47;29.83;97562.84;5122689;28;1002;-75
2021/05/12 02:00:31;;;;;;;;;;;;;;;21.61;29.72;97556.69;5122800;28;1910;-75
2021/05/12 02:02:56;;;;;;;;;;;;;;;21.65;29.93;97563.00;5122187;28;1429;-75
2021/05/12 02:05:22;;;;;;;;;;;;;;;21.59;29.80;97565.63;5123097;28;621;-75
2021/05/12 02:07:48;;;;;;;;;;;;;;;21.43;29.96;97557.28;5122630;28;722;-75
2021/05/12 02:10:14;;;;;;;;;;;;;;;21.57;29.82;97556.03;5139122;27;602;-75
2021/05/12 02:12:39;;;;;;;;;;;;;;;21.59;29.56;97554.31;5122406;28;1335;-76
2021/05/12 02:15:05;;;;;;;;;;;;;;;21.75;29.69;97553.38;5122372;28;1504;-75
2021/05/12 02:17:31;;;;;;;;;;;;;;;21.60;29.68;97557.94;5104913;28;1271;-75
2021/05/12 02:19:56;;;;;;;;;;;;;;;21.60;29.71;97549.44;5122341;28;1979;-75
2021/05/12 02:22:22;;;;;;;;;;;;;;;21.55;29.97;97552.84;5122192;28;1334;-75
2021/05/12 02:24:47;;;;;;;;;;;;;;;21.47;30.39;97545.84;5122465;28;617;-76
2021/05/12 02:27:12;;;;;;;;;;;;;;;21.43;30.50;97550.84;5122687;28;677;-75
2021/05/12 02:29:38;;;;;;;;;;;;;;;21.44;30.10;97563.72;5121987;28;931;-75
2021/05/12 02:32:03;;;;;;;;;;;;;;;21.63;29.70;97550.56;5121925;28;869;-76
2021/05/12 02:34:29;;;;;;;;;;;;;;;21.44;30.00;97555.25;5121893;28;1410;-75
2021/05/12 02:36:54;;;;;;;;;;;;;;;21.62;30.14;97552.63;5122119;28;594;-75
2021/05/12 02:39:20;;;;;;;;;;;;;;;21.55;30.03;97547.19;5122052;28;1970;-75
2021/05/12 02:41:45;;;;;;;;;;;;;;;21.44;30.37;97552.41;5122153;28;645;-75
2021/05/12 02:44:11;;;;;;;;;;;;;;;21.46;29.94;97547.09;5121663;28;1417;-75
2021/05/12 02:46:36;;;;;;;;;;;;;;;21.51;29.93;97549.34;5121585;28;872;-75
2021/05/12 02:49:02;;;;;;;;;;;;;;;21.58;30.13;97554.78;5121892;28;753;-75
2021/05/12 02:51:27;;;;;;;;;;;;;;;21.57;29.91;97556.03;5121836;28;673;-75
2021/05/12 02:53:52;;;;;;;;;;;;;;;21.41;29.87;97559.00;5121831;28;1362;-75
2021/05/12 02:56:18;;;;;;;;;;;;;;;21.47;29.96;97563.63;5121681;28;1310;-75
2021/05/12 02:58:44;;;;;;;;;;;;;;;21.53;29.89;97558.19;5121249;28;1982;-75
2021/05/12 03:01:09;;;;;;;;;;;;;;;21.59;29.49;97559.19;5121637;28;876;-75
2021/05/12 03:03:36;;;;;;;;;;;;;;;21.51;29.96;97552.97;5121911;28;951;-75
2021/05/12 03:06:02;;;;;;;;;;;;;;;21.46;29.79;97549.94;5121641;28;1358;-75
2021/05/12 03:08:28;;;;;;;;;;;;;;;21.44;30.16;97552.41;5121784;28;705;-75
2021/05/12 03:10:53;;;;;;;;;;;;;;;21.45;29.96;97548.31;5121225;28;1323;-75
2021/05/12 03:13:19;;;;;;;;;;;;;;;21.40;30.23;97554.56;5121189;28;979;-75
2021/05/12 03:15:44;;;;;;;;;;;;;;;21.61;29.67;97551.03;5121097;28;1315;-75
2021/05/12 03:18:09;;;;;;;;;;;;;;;21.47;30.03;97534.53;5121083;28;1319;-75
2021/05/12 03:20:35;;;;;;;;;;;;;;;21.48;30.06;97539.72;5121658;28;1909;-75
2021/05/12 03:23:00;;;;;;;;;;;;;;;21.64;29.77;97535.94;5121585;28;652;-74
2021/05/12 03:25:26;;;;;;;;;;;;;;;21.64;29.77;97538.78;5121269;28;1346;-75
2021/05/12 03:27:51;;;;;;;;;;;;;;;21.50;30.04;97539.25;5120989;28;986;-74
2021/05/12 03:30:18;;;;;;;;;;;;;;;21.51;30.09;97536.00;5120475;28;871;-75
2021/05/12 03:32:44;;;;;;;;;;;;;;;21.54;29.91;97539.94;5121069;28;1016;-75
2021/05/12 03:35:09;;;;;;;;;;;;;;;21.61;30.03;97538.94;5121506;28;643;-75
2021/05/12 03:37:35;;;;;;;;;;;;;;;21.54;30.11;97539.94;5120803;28;1417;-75
2021/05/12 03:40:00;;;;;;;;;;;;;;;21.60;30.03;97532.44;5120942;28;1977;-75
2021/05/12 03:42:26;;;;;;;;;;;;;;;21.65;29.73;97536.75;5102993;28;844;-76
2021/05/12 03:44:51;;;;;;;;;;;;;;;21.68;29.79;97533.78;5121042;28;890;-75
2021/05/12 03:47:17;;;;;;;;;;;;;;;21.68;29.72;97527.34;5120531;28;1331;-75
2021/05/12 03:49:42;;;;;;;;;;;;;;;21.51;30.05;97524.66;5120913;28;677;-76
2021/05/12 03:52:08;;;;;;;;;;;;;;;21.65;29.79;97529.03;5120879;28;627;-75
2021/05/12 03:54:33;;;;;;;;;;;;;;;21.64;29.65;97527.47;5137271;27;588;-75
2021/05/12 03:56:59;;;;;;;;;;;;;;;21.52;30.03;97525.47;5120707;28;629;-76
2021/05/12 03:59:24;;;;;;;;;;;;;;;21.54;30.15;97531.44;5120009;28;1972;-75
2021/05/12 04:01:50;;;;;;;;;;;;;;;21.52;30.23;97520.59;5120335;28;895;-75
2021/05/12 04:04:17;;;;;;;;;;;;;;;21.54;29.91;97522.94;5120839;28;911;-75
2021/05/12 04:06:44;;;;;;;;;;;;;;;21.57;30.23;97519.22;5103354;28;621;-75
2021/05/12 04:09:11;;;;;;;;;;;;;;;21.50;29.99;97517.44;5120186;28;1346;-72
2021/05/12 04:11:36;;;;;;;;;;;;;;;21.54;30.02;97511.63;5120873;28;650;-74
2021/05/12 04:14:02;;;;;;;;;;;;;;;21.66;29.79;97510.81;5120286;28;878;-75
2021/05/12 04:16:27;;;;;;;;;;;;;;;21.46;30.00;97505.44;5120196;28;906;-75
2021/05/12 04:18:53;;;;;;;;;;;;;;;21.57;29.88;97499.41;5120264;28;1972;-75
2021/05/12 04:21:18;;;;;;;;;;;;;;;21.61;29.92;97500.09;5103238;28;638;-75
2021/05/12 04:23:43;;;;;;;;;;;;;;;21.67;29.87;97503.91;5120880;28;677;-75
2021/05/12 04:26:09;;;;;;;;;;;;;;;21.87;29.48;97500.00;5120643;28;642;-75
2021/05/12 04:28:34;;;;;;;;;;;;;;;21.68;29.70;97502.66;5120126;28;971;-74
2021/05/12 04:31:00;;;;;;;;;;;;;;;21.59;30.10;97496.91;5119944;28;1074;-75
2021/05/12 04:33:25;;;;;;;;;;;;;;;21.54;30.11;97505.97;5120238;28;1011;-75
2021/05/12 04:35:51;;;;;;;;;;;;;;;21.39;30.52;97493.53;5102546;28;1268;-75
2021/05/12 04:38:16;;;;;;;;;;;;;;;21.52;29.96;97491.50;5120309;28;896;-75
2021/05/12 04:40:42;;;;;;;;;;;;;;;21.45;30.29;97503.03;5120091;28;1972;-75
2021/05/12 04:43:08;;;;;;;;;;;;;;;21.65;29.94;97502.75;5123850;28;978;-75
2021/05/12 04:45:33;;;;;;;;;;;;;;;21.58;29.77;97492.50;5123966;28;787;-75
2021/05/12 04:47:59;;;;;;;;;;;;;;;21.67;29.94;97495.41;5123929;28;841;-75
2021/05/12 04:50:26;;;;;;;;;;;;;;;21.65;29.99;97497.88;5123995;28;648;-75
2021/05/12 04:52:51;;;;;;;;;;;;;;;21.55;30.15;97496.22;5124165;28;606;-75
2021/05/12 04:55:17;;;;;;;;;;;;;;;21.52;30.10;97486.63;5124184;28;606;-75
2021/05/12 04:57:42;;;;;;;;;;;;;;;21.44;30.26;97481.66;5123887;28;1000;-75
2021/05/12 05:00:08;;;;;;;;;;;;;;;21.47;30.08;97492.06;5123414;28;1977;-75
2021/05/12 05:02:34;;;;;;;;;;;;;;;21.53;30.15;97493.06;5105533;28;1118;-75
2021/05/12 05:05:00;;;;;;;;;;;;;;;21.53;30.27;97495.91;5120384;28;1023;-75
2021/05/12 05:07:25;;;;;;;;;;;;;;;21.44;29.98;97492.97;5123492;28;1165;-75
2021/05/12 05:09:51;;;;;;;;;;;;;;;21.47;30.27;97490.03;5123847;28;1221;-75
2021/05/12 05:12:16;;;;;;;;;;;;;;;21.56;30.07;97480.84;5105303;28;1157;-75
2021/05/12 05:14:42;;;;;;;;;;;;;;;21.64;29.94;97490.66;5122993;28;1256;-75
2021/05/12 05:17:07;;;;;;;;;;;;;;;21.58;30.02;97490.44;5123103;28;1145;-75
2021/05/12 05:19:32;;;;;;;;;;;;;;;21.55;30.11;97485.72;5123258;28;1972;-75
2021/05/12 05:22:00;;;;;;;;;;;;;;;21.52;30.36;97491.50;5123144;28;1245;-75
2021/05/12 05:24:25;;;;;;;;;;;;;;;21.70;30.04;97485.19;5123420;28;1217;-75
2021/05/12 05:26:51;;;;;;;;;;;;;;;21.65;30.08;97483.75;5104911;28;1209;-75
2021/05/12 05:29:16;;;;;;;;;;;;;;;21.61;29.86;97487.97;5122904;28;1185;-75
2021/05/12 05:31:42;;;;;;;;;;;;;;;21.66;30.11;97479.69;5087354;28;1206;-75
2021/05/12 05:34:26;;;;;;;;;;;;;;;21.71;30.09;97490.41;5120893;28;987;-75
2021/05/12 05:37:10;;;;;;;;;;;;;;;21.58;30.37;97481.16;5106419;28;1010;-75
2021/05/12 05:39:57;;;;;;;;;;;;;;;21.59;30.30;97485.56;5121750;28;1963;-75
2021/05/12 05:42:41;;;;;;;;;;;;;;;21.65;29.90;97483.75;5119791;28;1078;-75
2021/05/12 05:45:25;;;;;;;;;;;;;;;21.59;30.17;97488.41;5119977;28;981;-75
2021/05/12 05:48:09;;;;;;;;;;;;;;;21.43;30.16;97489.34;5091650;28;1094;-75
2021/05/12 05:50:53;;;;;;;;;;;;;;;21.50;30.08;97488.31;5121428;28;945;-75
2021/05/12 05:53:37;;;;;;;;;;;;;;;21.48;30.33;97485.16;5089977;28;1037;-75
2021/05/12 05:56:21;;;;;;;;;;;;;;;21.49;29.96;97483.91;5122567;28;1101;-75
2021/05/12 05:59:06;;;;;;;;;;;;;;;21.47;30.08;97478.72;5120764;28;1974;-75
2021/05/12 06:01:51;;;;;;;;;;;;;;;21.59;29.96;97474.25;5122588;28;874;-75
2021/05/12 06:04:16;;;;;;;;;;;;;;;21.45;30.04;97484.03;5105164;28;622;-75
2021/05/12 06:07:00;;;;;;;;;;;;;;;21.51;29.82;97473.72;5122830;28;659;-75
2021/05/12 06:09:44;;;;;;;;;;;;;;;21.48;30.10;97480.28;5122468;28;1113;-75
2021/05/12 06:12:28;;;;;;;;;;;;;;;21.45;30.11;97486.06;5119519;28;917;-75
2021/05/12 06:15:19;;;;;;;;;;;;;;;21.43;29.80;97486.53;5090309;28;1008;-75
2021/05/12 06:18:03;;;;;;;;;;;;;;;21.36;30.04;97483.16;5121026;28;939;-75
2021/05/12 06:20:49;;;;;;;;;;;;;;;21.49;29.77;97481.06;5098068;28;1902;-74
2021/05/12 06:23:33;;;;;;;;;;;;;;;21.93;29.95;97484.78;5120773;28;979;-74
2021/05/12 06:26:19;;;;;;;;;;;;;;;22.24;29.97;97484.88;5121292;28;1027;-74
2021/05/12 06:29:03;;;;;;;;;;;;;;;22.38;29.98;97489.22;5119130;28;1022;-75
2021/05/12 06:31:47;;;;;;;;;;;;;;;21.77;31.01;97480.09;5121981;28;838;-75
2021/05/12 06:34:32;;;;;;;;;;;;;;;21.59;30.99;97482.75;5121974;28;844;-75
2021/05/12 06:37:16;;;;;;;;;;;;;;;21.58;30.78;97469.84;5122158;28;574;-75
2021/05/12 06:39:59;;;;;;;;;;;;;;;21.54;30.64;97478.44;5121971;28;1898;-74
2021/05/12 06:42:25;;;;;;;;;;;;;;;21.51;30.45;97482.22;5121999;28;586;-75
2021/05/12 06:44:50;;;;;;;;;;;;;;;21.57;30.28;97468.25;5122340;28;590;-75
2021/05/12 06:47:16;;;;;;;;;;;;;;;21.43;30.48;97466.72;5121831;28;1040;-75
2021/05/12 06:49:41;;;;;;;;;;;;;;;21.42;30.57;97470.00;5121549;28;873;-75
2021/05/12 06:52:07;;;;;;;;;;;;;;;21.40;30.37;97473.31;5121847;28;884;-75
2021/05/12 06:54:35;;;;;;;;;;;;;;;21.32;30.44;97474.78;5121741;28;653;-75
2021/05/12 06:57:00;;;;;;;;;;;;;;;21.41;30.61;97476.91;5121660;28;719;-75
2021/05/12 06:59:26;;;;;;;;;;;;;;;21.40;30.27;97472.47;5121171;28;1890;-75
2021/05/12 07:01:52;;;;;;;;;;;;;;;21.45;30.14;97463.41;5121272;28;943;-75
2021/05/12 07:04:18;;;;;;;;;;;;;;;21.49;29.98;97469.75;5120807;28;834;-74
2021/05/12 07:06:43;;;;;;;;;;;;;;;21.36;30.28;97466.19;5121676;28;640;-75
2021/05/12 07:09:09;;;;;;;;;;;;;;;21.41;29.92;97466.38;5121464;28;655;-75
2021/05/12 07:11:34;;;;;;;;;;;;;;;21.38;30.02;97470.13;5121444;28;664;-75
2021/05/12 07:14:00;;;;;;;;;;;;;;;21.77;29.99;97468.75;5121062;28;1127;-75
2021/05/12 07:16:25;;;;;;;;;;;;;;;22.12;29.76;97465.88;5121168;28;945;-75
2021/05/12 07:18:51;;;;;;;;;;;;;;;22.26;29.48;97468.19;5121191;28;1976;-75
2021/05/12 07:21:16;;;;;;;;;;;;;;;22.08;29.53;97465.22;5121238;28;674;-75
2021/05/12 07:23:44;;;;;;;;;;;;;;;21.92;29.88;97465.41;5121297;28;650;-75
2021/05/12 07:26:10;;;;;;;;;;;;;;;21.62;30.07;97456.34;5121499;28;730;-75
2021/05/12 07:28:36;;;;;;;;;;;;;;;21.46;30.40;97465.03;5121062;28;996;-75
2021/05/12 07:31:01;;;;;;;;;;;;;;;21.51;30.37;97459.56;5121309;28;919;-75
2021/05/12 07:33:26;;;;;;;;;;;;;;;21.41;30.13;97468.44;5121023;28;798;-75
2021/05/12 07:35:52;;;;;;;;;;;;;;;21.36;30.02;97455.66;5121578;28;682;-75
2021/05/12 07:38:17;;;;;;;;;;;;;;;21.27;30.28;97459.13;5103604;28;1138;-75
2021/05/12 07:40:43;;;;;;;;;;;;;;;21.45;29.81;97457.75;5120476;28;1969;-75
2021/05/12 07:43:11;;;;;;;;;;;;;;;21.47;29.84;97449.63;5120941;28;824;-75
2021/05/12 07:45:37;;;;;;;;;;;;;;;21.41;30.03;97459.94;5121074;28;1019;-75
2021/05/12 07:48:05;;;;;;;;;;;;;;;21.43;29.71;97466.72;5121288;28;662;-75
2021/05/12 07:50:31;;;;;;;;;;;;;;;21.46;29.77;97459.34;5103140;28;1249;-75
2021/05/12 07:52:57;;;;;;;;;;;;;;;21.47;29.70;97455.28;5120771;28;669;-75
2021/05/12 07:55:22;;;;;;;;;;;;;;;21.40;29.87;97455.50;5120601;28;955;-74
2021/05/12 07:57:47;;;;;;;;;;;;;;;21.41;30.01;97451.44;5120344;28;978;-75
2021/05/12 08:00:14;;;;;;;;;;;;;;;21.93;29.48;97447.16;5120544;28;1910;-75
2021/05/12 08:02:40;;;;;;;;;;;;;;;22.14;29.19;97449.25;5121129;28;601;-75
2021/05/12 08:05:06;;;;;;;;;;;;;;;22.05;29.16;97449.13;5120699;28;641;-75
2021/05/12 08:07:33;;;;;;;;;;;;;;;21.68;29.78;97442.41;5120891;28;653;-75
2021/05/12 08:09:58;;;;;;;;;;;;;;;21.66;29.51;97444.88;5120335;28;1044;-75
2021/05/12 08:12:24;;;;;;;;;;;;;;;21.69;29.56;97439.09;5120233;28;1035;-75
2021/05/12 08:14:49;;;;;;;;;;;;;;;21.60;29.55;97441.84;5120529;28;1225;-75
2021/05/12 08:17:15;;;;;;;;;;;;;;;21.63;29.41;97446.59;5124874;28;601;-75
2021/05/12 08:19:40;;;;;;;;;;;;;;;21.62;29.45;97433.72;5124829;28;1910;-74
2021/05/12 08:22:06;;;;;;;;;;;;;;;21.44;29.65;97439.19;5125006;28;649;-75
2021/05/12 08:24:31;;;;;;;;;;;;;;;21.24;30.07;97436.59;5124998;28;858;-75
2021/05/12 08:26:57;;;;;;;;;;;;;;;21.31;29.98;97440.03;5124392;28;983;-74
2021/05/12 08:29:23;;;;;;;;;;;;;;;21.32;29.83;97435.94;5124898;28;951;-75
2021/05/12 08:31:48;;;;;;;;;;;;;;;21.67;30.00;97435.16;5124492;28;637;-76
2021/05/12 08:34:14;;;;;;;;;;;;;;;22.03;29.51;97431.81;5124948;28;614;-75
2021/05/12 08:36:39;;;;;;;;;;;;;;;22.30;29.11;97437.69;5124815;28;589;-76
2021/05/12 08:39:05;;;;;;;;;;;;;;;22.05;29.05;97443.47;5124042;28;1898;-75
2021/05/12 08:41:34;;;;;;;;;;;;;;;21.89;29.28;97441.63;5124181;28;817;-75
2021/05/12 08:43:59;;;;;;;;;;;;;;;21.65;29.98;97443.31;5124388;28;983;-75
2021/05/12 08:46:25;;;;;;;;;;;;;;;21.64;29.93;97436.84;5106529;28;810;-75
2021/05/12 08:48:50;;;;;;;;;;;;;;;21.54;29.85;97443.69;5106865;28;613;-75
2021/05/12 08:51:16;;;;;;;;;;;;;;;21.55;29.75;97448.09;5124376;28;668;-75
2021/05/12 08:53:41;;;;;;;;;;;;;;;21.54;29.72;97444.47;5123747;28;933;-75
2021/05/12 08:56:06;;;;;;;;;;;;;;;21.45;29.69;97435.09;5105764;28;881;-75
2021/05/12 08:58:32;;;;;;;;;;;;;;;21.61;29.71;97428.50;5123916;28;1901;-73
2021/05/12 09:00:57;;;;;;;;;;;;;;;21.57;29.41;97434.28;5124007;28;597;-75
2021/05/12 09:03:27;;;;;;;;;;;;;;;21.46;29.61;97436.72;5124222;28;693;-74
2021/05/12 09:05:52;;;;;;;;;;;;;;;21.46;29.58;97442.38;5124321;28;821;-74
2021/05/12 09:08:18;;;;;;;;;;;;;;;21.42;29.53;97433.22;5123430;28;824;-74
2021/05/12 09:10:43;;;;;;;;;;;;;;;21.40;29.73;97438.53;5123545;28;900;-74
2021/05/12 09:13:09;;;;;;;;;;;;;;;21.45;29.58;97437.94;5123651;28;1032;-75
2021/05/12 09:15:34;;;;;;;;;;;;;;;21.33;29.58;97431.06;5106142;28;1114;-75
2021/05/12 09:18:00;;;;;;;;;;;;;;;21.74;29.50;97434.91;5123718;28;610;-75
2021/05/12 09:20:30;;;;;;;;;;;;;;;22.11;28.81;97444.47;5123549;28;1926;-75
2021/05/12 09:23:01;;;;;;;;;;;;;;;22.22;28.69;97446.91;5123370;28;916;-75
2021/05/12 09:25:30;;;;;;;;;;;;;;;21.75;29.20;97440.09;5123650;28;843;-75
2021/05/12 09:28:11;;;;;;;;;;;;;;;21.56;29.40;97450.50;5122681;28;950;-75
2021/05/12 09:30:38;;;;;;;;;;;;;;;21.44;29.54;97437.16;5123782;28;635;-75
2021/05/12 09:33:03;;;;;;;;;;;;;;;21.42;29.52;97442.50;5123415;28;594;-76
2021/05/12 09:35:29;;;;;;;;;;;;;;;21.39;29.83;97448.25;5123200;28;633;-76
2021/05/12 09:37:54;;;;;;;;;;;;;;;21.52;29.17;97441.31;5123215;28;954;-75
2021/05/12 09:40:21;;;;;;;;;;;;;;;21.49;29.51;97430.13;5123064;28;1905;-75
2021/05/12 09:43:00;;;;;;;;;;;;;;;21.46;29.39;97443.16;5122966;28;923;-75
2021/05/12 09:45:26;;;;;;;;;;;;;;;21.52;29.31;97440.53;5123128;28;689;-75
2021/05/12 09:47:55;;;;;;;;;;;;;;;21.47;29.16;97439.06;5123067;28;643;-75
2021/05/12 09:50:23;;;;;;;;;;;;;;;21.39;29.73;97431.28;5122623;28;1071;-75
2021/05/12 09:52:51;;;;;;;;;;;;;;;21.90;29.06;97436.75;5122410;28;1173;-75
2021/05/12 09:55:17;;;;;;;;;;;;;;;22.27;28.45;97437.81;5119467;28;1225;-75
2021/05/12 09:57:59;;;;;;;;;;;;;;;22.15;28.34;97436.66;5104472;28;1189;-74
2021/05/12 10:00:25;;;;;;;;;;;;;;;21.70;29.21;97429.34;5122631;28;1906;-75
2021/05/12 10:02:50;;;;;;;;;;;;;;;21.45;29.61;97435.94;5123217;28;653;-75
2021/05/12 10:05:17;;;;;;;;;;;;;;;21.44;29.46;97428.66;5122770;28;656;-75
2021/05/12 10:07:48;;;;;;;;;;;;;;;21.36;29.68;97426.56;5104445;28;1102;-75
2021/05/12 10:10:14;;;;;;;;;;;;;;;21.33;29.48;97417.72;5120073;28;1074;-74
2021/05/12 10:12:39;;;;;;;;;;;;;;;21.51;29.44;97421.97;5104601;28;1229;-75
2021/05/12 10:15:07;;;;;;;;;;;;;;;21.51;29.11;97421.97;5121882;28;1311;-74
2021/05/12 10:17:33;;;;;;;;;;;;;;;21.27;29.52;97425.19;5122295;28;1205;-75
2021/05/12 10:19:59;;;;;;;;;;;;;;;21.32;29.39;97424.63;5104805;28;1931;-75
2021/05/12 10:22:25;;;;;;;;;;;;;;;21.32;29.59;97421.81;5121948;28;1078;-75
2021/05/12 10:24:52;;;;;;;;;;;;;;;21.28;29.64;97421.09;5121495;28;1236;-74
2021/05/12 10:27:18;;;;;;;;;;;;;;;21.39;29.44;97417.13;5121968;28;1126;-74
2021/05/12 10:29:47;;;;;;;;;;;;;;;21.59;29.21;97409.91;5122332;28;1181;-74
2021/05/12 10:32:16;;;;;;;;;;;;;;;22.21;28.48;97409.28;5104585;28;579;-75
2021/05/12 10:34:42;;;;;;;;;;;;;;;22.40;28.39;97415.06;5122109;28;633;-75
2021/05/12 10:37:23;;;;;;;;;;;;;;;22.06;28.54;97413.88;5122185;28;910;-75
2021/05/12 10:39:49;;;;;;;;;;;;;;;21.78;29.32;97422.19;5120546;28;1909;-75
2021/05/12 10:42:35;;;;;;;;;;;;;;;21.66;29.57;97417.38;5122352;28;931;-75
2021/05/12 10:45:02;;;;;;;;;;;;;;;21.60;29.80;97413.53;5121883;28;950;-75
2021/05/12 10:47:35;;;;;;;;;;;;;;;21.70;29.42;97415.19;5122255;28;646;-75
2021/05/12 10:50:00;;;;;;;;;;;;;;;21.68;29.72;97409.22;5121913;28;645;-75
2021/05/12 10:52:27;;;;;;;;;;;;;;;21.69;29.39;97410.00;5121454;28;973;-74
2021/05/12 10:54:53;;;;;;;;;;;;;;;21.68;29.84;97406.38;5121734;28;876;-75
2021/05/12 10:57:37;;;;;;;;;;;;;;;21.51;29.83;97402.16;5121789;28;881;-75
2021/05/12 11:00:03;;;;;;;;;;;;;;;21.59;29.95;97389.31;5121397;28;1992;-75
2021/05/12 11:02:46;;;;;;;;;;;;;;;21.56;29.94;97401.59;5121716;28;673;-75
2021/05/12 11:05:12;;;;;;;;;;;;;;;21.63;30.04;97389.97;5121417;28;794;-75
2021/05/12 11:07:56;;;;;;;;;;;;;;;21.70;29.72;97401.03;5121342;28;857;-75
2021/05/12 11:10:22;;;;;;;;;;;;;;;21.62;30.07;97394.06;5103403;28;1248;-75
2021/05/12 11:12:51;;;;;;;;;;;;;;;21.60;29.85;97390.88;5121592;28;637;-75
2021/05/12 11:15:17;;;;;;;;;;;;;;;21.53;29.95;97388.34;5121523;28;650;-75
2021/05/12 11:17:45;;;;;;;;;;;;;;;21.66;30.06;97394.75;5121350;28;590;-75
2021/05/12 11:20:14;;;;;;;;;;;;;;;21.57;30.16;97386.16;5121181;28;1967;-75
2021/05/12 11:33:04;;;;;;;;;;;;;;;21.48;30.22;97386.09;5121019;28;635;-75
2021/05/12 11:35:30;;;;;;;;;;;;;;;21.45;30.25;97384.16;5103499;28;634;-74
2021/05/12 11:37:56;;;;;;;;;;;;;;;21.44;30.17;97371.25;5120671;28;881;-75
2021/05/12 11:40:22;;;;;;;;;;;;;;;21.57;30.01;97380.50;5120591;28;1906;-75
2021/05/12 11:42:48;;;;;;;;;;;;;;;21.52;29.88;97378.25;5121261;28;852;-75
2021/05/12 11:45:17;;;;;;;;;;;;;;;21.46;30.38;97377.28;5120873;28;622;-75
2021/05/12 11:47:45;;;;;;;;;;;;;;;21.58;29.88;97376.41;5120841;28;666;-75
2021/05/12 11:50:20;;;;;;;;;;;;;;;21.51;30.04;97373.84;5120413;28;681;-74
2021/05/12 11:52:45;;;;;;;;;;;;;;;21.49;30.42;97371.47;5120506;28;955;-75
2021/05/12 11:55:11;;;;;;;;;;;;;;;21.49;30.17;97373.50;5120840;28;914;-73
2021/05/12 11:57:36;;;;;;;;;;;;;;;21.52;29.99;97383.94;5120653;28;882;-73
2021/05/12 12:00:05;;;;;;;;;;;;;;;21.44;30.22;97372.06;5102956;28;1977;-74
2021/05/12 12:02:39;;;;;;;;;;;;;;;21.44;30.34;97376.94;5120613;28;913;-74
2021/05/12 12:05:38;;;;;;;;;;;;;;;21.61;29.93;97381.19;5120705;28;745;-75
2021/05/12 12:08:10;;;;;;;;;;;;;;;21.49;30.14;97367.84;5120034;28;914;-75
2021/05/12 12:10:36;;;;;;;;;;;;;;;21.62;29.82;97381.97;5119996;28;845;-75
2021/05/12 12:13:02;;;;;;;;;;;;;;;21.42;30.16;97373.78;5120495;28;622;-75
2021/05/12 12:15:28;;;;;;;;;;;;;;;21.51;29.80;97376.69;5120631;28;670;-75
2021/05/12 12:17:53;;;;;;;;;;;;;;;21.49;30.13;97367.84;5120482;28;729;-75
2021/05/12 12:20:18;;;;;;;;;;;;;;;21.47;29.86;97370.34;5120377;28;1975;-75
2021/05/12 12:22:50;;;;;;;;;;;;;;;21.46;30.27;97375.22;5119868;28;1030;-75
2021/05/12 12:25:16;;;;;;;;;;;;;;;21.56;29.78;97364.78;5119958;28;833;-74
2021/05/12 12:27:42;;;;;;;;;;;;;;;21.53;29.96;97368.50;5120100;28;958;-75
2021/05/12 12:30:08;;;;;;;;;;;;;;;21.61;29.52;97364.19;5102433;28;686;-75
2021/05/12 12:32:35;;;;;;;;;;;;;;;21.65;29.71;97361.19;5102506;28;1113;-75
2021/05/12 12:35:00;;;;;;;;;;;;;;;21.57;29.56;97353.00;5120006;28;674;-75
2021/05/12 12:37:31;;;;;;;;;;;;;;;21.56;29.90;97353.44;5120048;28;690;-75
2021/05/12 12:40:07;;;;;;;;;;;;;;;21.70;29.59;97352.91;5119617;28;1898;-75
2021/05/12 12:42:34;;;;;;;;;;;;;;;21.62;29.67;97348.78;5119893;28;826;-75
2021/05/12 12:45:00;;;;;;;;;;;;;;;21.45;30.05;97353.84;5120374;28;934;-75
2021/05/12 12:47:27;;;;;;;;;;;;;;;21.51;30.04;97342.72;5119983;28;681;-75
2021/05/12 12:49:56;;;;;;;;;;;;;;;21.42;30.02;97340.59;5119878;28;634;-75
2021/05/12 12:52:30;;;;;;;;;;;;;;;21.42;30.22;97334.16;5119964;28;609;-75
2021/05/12 12:55:04;;;;;;;;;;;;;;;21.53;29.99;97340.22;5119469;28;979;-75
2021/05/12 12:57:42;;;;;;;;;;;;;;;21.51;29.77;97346.34;5119516;28;844;-75
2021/05/12 13:00:09;;;;;;;;;;;;;;;21.45;29.92;97338.88;5119596;28;1894;-75
2021/05/12 13:02:35;;;;;;;;;;;;;;;21.58;29.72;97342.44;5121914;28;614;-75
2021/05/12 13:05:10;;;;;;;;;;;;;;;21.51;29.85;97342.72;5123934;28;709;-75
2021/05/12 13:07:35;;;;;;;;;;;;;;;21.52;29.71;97339.41;5123798;28;870;-75
2021/05/12 13:10:19;;;;;;;;;;;;;;;21.52;29.70;97339.41;5123778;28;836;-75
2021/05/12 13:12:45;;;;;;;;;;;;;;;21.49;29.79;97333.88;5123192;28;831;-75
2021/05/12 13:15:18;;;;;;;;;;;;;;;21.46;29.66;97324.28;5123077;28;839;-74
2021/05/12 13:18:10;;;;;;;;;;;;;;;21.34;29.97;97330.78;5123369;28;643;-74